Pagina principale
METAR-TAF:

METAR-TAF

Aeroporti :

Comiso, Italia

Aeroporto di Comiso

latitudine: 36-59-30N, longitudine: 14-36-25E, altezza: 190 m

Osservazione

Il bollettino è stato emesso 40 minuti fa, alle 09:50 UTC
Vento 5 kt da direzioni variabili
Temperature 23°C
Umidità 38%
Pressione 1020 hPa
Visibilità 10 km o più
nessuna nube inferiore a 1500 m e nessun cumulonembo

METAR: LICB 210950Z VRB05KT CAVOK 23/08 Q1020

Ora: 12:30 (10:30 UTC)

Previsione

Il bollettino è stato emesso 2 ore e 30 minuti fa, alle 08:00 UTC
Previsione valida dal 21 alle 09 UTC al 21 alle 18 UTC
Vento 12 kt da ovest/nord-ovest
Visibilità 10 km o più
nessuna nube inferiore a 1500 m e nessun cumulonembo

TAF: LICB 210800Z 2109/2118 30012KT CAVOK

Osservazioni e previsioni meteorologiche di più di 4000 aeroporti (messaggi METAR e TAF).

Le stazioni disponibili sono rappresentate dai dischi gialli e rossi sulla carta.

Puntare il mouse per vedere il nome della stazione.

Clicca sopra per visualizzare le osservazioni e previsioni meteorologiche.

Per cambiare la mappa : fare clic sui pulsanti verdi con una croce nera per ingrandire, il pulsante verde con un trattino per diminuire, o sulla freccia verde per le mappe adiacenti.


METAR-TAF: